Time;durP1;ratioP1;P1;durP2;ratioP2;P2;SDS_P1;SDS_P2;PMS_P1;PMS_P2;Temp;Humidity;BMP_temperature;BMP_pressure;BME280_temperature;BME280_humidity;BME280_pressure;Samples;Min_cycle;Max_cycle;Signal;HPM_P1;HPM_P2
2022/01/20 00:02:05;;;;;;;6.90;2.90;;;9.70;85.80;;;;;;4996507;28;20057;-71
2022/01/20 00:04:47;;;;;;;5.63;2.75;;;9.70;86.20;;;;;;5008860;28;20037;-71
2022/01/20 00:26:24;;;;;;;5.85;2.90;;;9.40;86.00;;;;;;4953105;29;20039;-71
2022/01/20 00:28:55;;;;;;;6.70;3.17;;;9.40;86.70;;;;;;4948812;29;20066;-71
2022/01/20 00:33:52;;;;;;;6.72;3.33;;;9.30;86.10;;;;;;4953317;29;20035;-71
2022/01/20 00:39:02;;;;;;;4.70;2.97;;;9.30;86.30;;;;;;4940443;29;20047;-71
2022/01/20 00:41:28;;;;;;;5.00;2.90;;;9.30;85.80;;;;;;4945057;29;20031;-71
2022/01/20 00:43:54;;;;;;;4.80;2.88;;;9.20;86.10;;;;;;4953006;29;20353;-71
2022/01/20 00:46:19;;;;;;;6.13;3.50;;;9.20;86.30;;;;;;4992956;28;20116;-71
2022/01/20 00:48:45;;;;;;;5.03;3.03;;;9.10;86.20;;;;;;4995292;28;20113;-71
2022/01/20 00:51:11;;;;;;;6.18;3.40;;;9.10;86.10;;;;;;4998319;28;20065;-71
2022/01/20 00:53:43;;;;;;;10.27;3.90;;;9.10;86.50;;;;;;4998326;28;20026;-71
2022/01/20 00:56:10;;;;;;;5.05;3.28;;;9.10;86.10;;;;;;4999564;28;20049;-71
2022/01/20 00:58:36;;;;;;;7.20;3.47;;;9.00;86.40;;;;;;4999252;28;20504;-71
2022/01/20 01:01:02;;;;;;;5.93;3.17;;;9.00;86.60;;;;;;4995619;28;20029;-72
2022/01/20 01:03:27;;;;;;;5.25;3.05;;;9.00;86.40;;;;;;4998126;28;20161;-72
2022/01/20 01:06:14;;;;;;;7.03;3.30;;;9.00;86.40;;;;;;4999119;28;20389;-72
2022/01/20 01:08:40;;;;;;;6.32;3.05;;;9.00;86.60;;;;;;4999088;28;20030;-72
2022/01/20 01:11:07;;;;;;;4.88;2.85;;;9.00;86.50;;;;;;4999258;28;20022;-72
2022/01/20 01:13:33;;;;;;;6.40;3.53;;;9.00;86.40;;;;;;4999116;28;20116;-72
2022/01/20 01:15:58;;;;;;;4.93;2.78;;;8.90;86.30;;;;;;4994988;28;20097;-72
2022/01/20 01:21:27;;;;;;;4.88;2.90;;;8.90;86.30;;;;;;4995677;28;20056;-72
2022/01/20 01:23:52;;;;;;;7.05;2.58;;;8.90;86.40;;;;;;4995480;28;20041;-72
2022/01/20 01:26:20;;;;;;;4.93;2.53;;;8.90;86.20;;;;;;4996347;28;20428;-72
2022/01/20 01:28:46;;;;;;;4.10;2.20;;;8.90;86.10;;;;;;4996071;28;20034;-72
2022/01/20 01:34:03;;;;;;;3.72;2.15;;;8.90;86.50;;;;;;4995155;28;20488;-72
2022/01/20 01:36:39;;;;;;;4.90;2.25;;;9.00;86.50;;;;;;5008897;28;20532;-72
2022/01/20 01:39:05;;;;;;;4.97;2.05;;;9.00;86.10;;;;;;4995551;28;20045;-72
2022/01/20 01:41:35;;;;;;;5.32;1.90;;;8.90;85.90;;;;;;4995914;28;20042;-71
2022/01/20 01:44:06;;;;;;;3.90;2.20;;;8.90;85.90;;;;;;4994708;28;20026;-71
2022/01/20 01:46:32;;;;;;;4.72;1.75;;;9.00;86.20;;;;;;4995792;28;20473;-72
2022/01/20 01:48:57;;;;;;;6.78;1.85;;;8.90;85.80;;;;;;4995490;28;20520;-71
2022/01/20 01:51:24;;;;;;;4.28;1.88;;;9.00;86.00;;;;;;4993316;28;20022;-71
2022/01/20 01:53:50;;;;;;;4.40;1.70;;;9.00;85.80;;;;;;4995963;28;20113;-71
2022/01/20 01:56:16;;;;;;;4.90;1.50;;;9.00;85.70;;;;;;4995376;28;20508;-71
2022/01/20 01:58:42;;;;;;;3.40;1.67;;;9.00;85.90;;;;;;4994337;28;20031;-71
2022/01/20 02:01:07;;;;;;;4.30;1.58;;;9.00;85.50;;;;;;4995885;28;20028;-71
2022/01/20 02:03:42;;;;;;;2.33;1.45;;;9.00;85.40;;;;;;4991669;28;20022;-71
2022/01/20 02:19:53;;;;;;;4.03;1.10;;;9.00;85.10;;;;;;4995026;28;20073;-71
2022/01/20 02:22:19;;;;;;;3.60;1.50;;;8.90;84.80;;;;;;4995462;28;20026;-71
2022/01/20 02:24:44;;;;;;;2.83;1.15;;;8.90;84.90;;;;;;4993397;28;20448;-72
2022/01/20 02:27:10;;;;;;;2.65;1.00;;;8.90;84.80;;;;;;4996960;28;20034;-71
2022/01/20 02:29:35;;;;;;;4.97;1.52;;;8.80;84.70;;;;;;4997994;28;20092;-71
2022/01/20 02:32:01;;;;;;;5.53;1.10;;;8.80;84.50;;;;;;4997814;28;20072;-71
2022/01/20 02:34:30;;;;;;;2.95;1.20;;;8.80;84.70;;;;;;4995422;28;20237;-71
2022/01/20 02:36:58;;;;;;;2.95;0.80;;;8.70;84.60;;;;;;4993763;28;20467;-72
2022/01/20 02:44:57;;;;;;;6.95;1.30;;;8.60;84.40;;;;;;4997890;28;20041;-71
2022/01/20 02:47:29;;;;;;;5.25;1.10;;;8.60;84.60;;;;;;4995978;28;20493;-72
2022/01/20 02:49:55;;;;;;;3.55;1.10;;;8.60;84.70;;;;;;4997777;28;20062;-71
2022/01/20 02:52:23;;;;;;;6.10;1.38;;;8.60;84.70;;;;;;4996102;28;20072;-72
2022/01/20 02:54:50;;;;;;;6.35;1.02;;;8.60;84.70;;;;;;4994755;28;20027;-72
2022/01/20 02:57:17;;;;;;;3.47;0.90;;;8.50;84.50;;;;;;4996754;28;20038;-72
2022/01/20 02:59:43;;;;;;;3.80;0.95;;;8.50;84.70;;;;;;4997529;28;20053;-72
2022/01/20 03:02:09;;;;;;;2.75;0.80;;;8.50;84.40;;;;;;4997325;28;20030;-72
2022/01/20 03:04:36;;;;;;;2.53;0.90;;;8.50;84.50;;;;;;4997748;28;20120;-72
2022/01/20 03:07:03;;;;;;;4.43;1.00;;;8.50;84.60;;;;;;4993410;28;20030;-71
2022/01/20 03:09:29;;;;;;;6.85;1.23;;;8.40;84.70;;;;;;4996320;28;20416;-72
2022/01/20 03:11:54;;;;;;;3.38;0.90;;;8.40;84.40;;;;;;4997505;28;20500;-72
2022/01/20 03:14:20;;;;;;;3.40;0.88;;;8.40;85.20;;;;;;4997438;28;20046;-72
2022/01/20 03:16:48;;;;;;;3.00;0.80;;;8.40;84.60;;;;;;4997057;28;20030;-72
2022/01/20 03:19:15;;;;;;;5.07;0.93;;;8.40;84.50;;;;;;4994929;28;20109;-72
2022/01/20 03:21:41;;;;;;;4.20;0.90;;;8.40;84.70;;;;;;4995272;28;20392;-72
2022/01/20 03:24:08;;;;;;;6.78;0.93;;;8.30;84.40;;;;;;4996753;28;20057;-72
2022/01/20 03:26:35;;;;;;;3.80;0.75;;;8.30;84.50;;;;;;4997511;28;20386;-72
2022/01/20 03:29:02;;;;;;;8.23;1.20;;;8.30;84.20;;;;;;4997600;28;20038;-71
2022/01/20 03:31:30;;;;;;;3.20;0.70;;;8.20;84.20;;;;;;4996569;28;20026;-72
2022/01/20 03:33:55;;;;;;;2.47;0.73;;;8.20;84.30;;;;;;4993407;28;20054;-72
2022/01/20 03:36:21;;;;;;;2.55;0.80;;;8.20;84.60;;;;;;4996257;28;20085;-72
2022/01/20 03:38:47;;;;;;;2.65;0.90;;;8.20;84.50;;;;;;5001320;28;20546;-72
2022/01/20 03:41:13;;;;;;;6.07;1.10;;;8.30;84.90;;;;;;5000096;28;20038;-72
2022/01/20 03:43:39;;;;;;;4.95;1.10;;;8.30;84.40;;;;;;4994723;28;20030;-72
2022/01/20 03:46:11;;;;;;;4.82;1.13;;;8.20;84.00;;;;;;4995552;28;20038;-72
2022/01/20 03:48:48;;;;;;;7.35;0.90;;;8.20;84.30;;;;;;4996202;28;20061;-72
2022/01/20 03:51:15;;;;;;;3.60;0.98;;;8.30;84.60;;;;;;4999971;28;20065;-72
2022/01/20 03:53:40;;;;;;;4.75;1.13;;;8.20;84.20;;;;;;5000716;28;20026;-72
2022/01/20 03:56:07;;;;;;;2.38;0.75;;;8.30;84.70;;;;;;5000662;28;20042;-73
2022/01/20 03:58:32;;;;;;;3.72;0.70;;;8.30;84.10;;;;;;5000638;28;20143;-73
2022/01/20 04:00:58;;;;;;;4.55;0.90;;;8.20;84.10;;;;;;4996152;28;20492;-73
2022/01/20 04:03:24;;;;;;;4.47;0.82;;;8.20;83.80;;;;;;4999578;28;20065;-72
2022/01/20 04:05:56;;;;;;;5.97;1.10;;;8.20;84.10;;;;;;5000654;28;20065;-72
2022/01/20 04:08:43;;;;;;;2.92;1.00;;;8.10;83.50;;;;;;4999104;28;20029;-73
2022/01/20 04:11:13;;;;;;;4.40;0.90;;;8.10;83.60;;;;;;5000530;28;20034;-73
2022/01/20 04:13:39;;;;;;;3.67;0.80;;;8.00;83.60;;;;;;5000111;28;20061;-73
2022/01/20 04:16:21;;;;;;;5.18;1.10;;;8.00;84.10;;;;;;4996328;28;20158;-71
2022/01/20 04:18:54;;;;;;;4.22;0.90;;;8.00;84.10;;;;;;4997512;28;20137;-73
2022/01/20 04:21:27;;;;;;;2.53;0.73;;;8.00;84.00;;;;;;4998080;28;20497;-73
2022/01/20 04:23:54;;;;;;;3.05;0.82;;;8.00;84.30;;;;;;4999904;28;20030;-73
2022/01/20 04:26:21;;;;;;;2.88;0.60;;;8.00;84.10;;;;;;5000192;28;20022;-73
2022/01/20 04:28:48;;;;;;;4.00;0.90;;;8.00;84.20;;;;;;4999697;28;20042;-73
2022/01/20 04:31:14;;;;;;;4.80;0.88;;;7.90;84.00;;;;;;4997589;28;20018;-74
2022/01/20 04:33:40;;;;;;;3.70;0.82;;;8.00;84.20;;;;;;4997571;28;20042;-73
2022/01/20 04:36:06;;;;;;;4.30;0.90;;;8.00;84.10;;;;;;4999250;28;20531;-73
2022/01/20 04:38:32;;;;;;;4.90;0.98;;;8.00;84.10;;;;;;4999905;28;20039;-74
2022/01/20 04:40:58;;;;;;;4.75;0.98;;;7.90;83.60;;;;;;5000071;28;20025;-73
2022/01/20 04:43:25;;;;;;;5.40;1.00;;;7.90;83.80;;;;;;4998459;28;20056;-73
2022/01/20 04:45:59;;;;;;;4.90;0.90;;;7.90;84.00;;;;;;4996668;28;20069;-73
2022/01/20 04:48:47;;;;;;;2.75;0.70;;;7.90;83.90;;;;;;4998776;28;20499;-74
2022/01/20 04:57:07;;;;;;;4.18;0.80;;;7.80;84.00;;;;;;4951433;28;20530;-74
2022/01/20 04:59:33;;;;;;;3.15;0.90;;;7.80;83.90;;;;;;4952578;29;20042;-73
2022/01/20 05:01:59;;;;;;;3.83;0.98;;;7.80;83.90;;;;;;4952731;29;20058;-73
2022/01/20 05:04:26;;;;;;;2.22;0.77;;;7.80;84.00;;;;;;4953786;29;20058;-73
2022/01/20 05:06:55;;;;;;;4.18;0.90;;;7.70;83.80;;;;;;4953194;29;20130;-73
2022/01/20 05:09:22;;;;;;;3.20;0.70;;;7.80;84.10;;;;;;4952995;29;20023;-73
2022/01/20 05:11:57;;;;;;;4.80;0.90;;;7.80;83.80;;;;;;4952524;29;20043;-73
2022/01/20 05:14:23;;;;;;;4.50;0.90;;;7.70;83.70;;;;;;4952208;29;20028;-73
2022/01/20 05:16:51;;;;;;;4.18;0.70;;;7.70;83.50;;;;;;4952215;29;20090;-72
2022/01/20 05:19:16;;;;;;;2.47;0.80;;;7.70;83.80;;;;;;4952438;29;20085;-72
2022/01/20 05:21:42;;;;;;;3.65;1.13;;;7.60;83.90;;;;;;4952611;29;20035;-72
2022/01/20 05:24:08;;;;;;;3.85;0.80;;;7.60;83.70;;;;;;4952622;29;20079;-73
2022/01/20 05:26:33;;;;;;;2.65;0.80;;;7.60;84.00;;;;;;4952047;29;20086;-72
2022/01/20 05:28:59;;;;;;;3.42;1.02;;;7.60;83.80;;;;;;4952402;29;20093;-73
2022/01/20 05:31:25;;;;;;;4.25;1.13;;;7.60;84.00;;;;;;4985592;28;20030;-73
2022/01/20 05:33:50;;;;;;;3.50;0.77;;;7.60;83.90;;;;;;4994452;28;20041;-73
2022/01/20 05:36:16;;;;;;;2.85;0.80;;;7.60;83.90;;;;;;4997645;28;20178;-73
2022/01/20 05:38:42;;;;;;;2.40;0.82;;;7.60;83.90;;;;;;4998672;28;20029;-73
2022/01/20 05:41:07;;;;;;;3.30;1.05;;;7.50;84.00;;;;;;4997174;28;20125;-72
2022/01/20 05:43:33;;;;;;;3.03;0.70;;;7.50;84.10;;;;;;4998693;28;20424;-73
2022/01/20 05:45:59;;;;;;;3.70;0.90;;;7.60;84.30;;;;;;4993252;28;20037;-73
2022/01/20 05:48:33;;;;;;;3.65;1.10;;;7.60;83.90;;;;;;4997885;28;20022;-73
2022/01/20 05:50:59;;;;;;;6.45;1.27;;;7.60;83.90;;;;;;4998624;28;20030;-73
2022/01/20 05:53:25;;;;;;;5.97;1.25;;;7.50;83.80;;;;;;4998399;28;20033;-74
2022/01/20 05:55:51;;;;;;;3.45;0.95;;;7.50;83.90;;;;;;4998191;28;20034;-74
2022/01/20 05:58:19;;;;;;;2.55;0.90;;;7.50;84.00;;;;;;4996282;28;20496;-73
2022/01/20 06:00:46;;;;;;;3.03;0.90;;;7.50;83.90;;;;;;4996003;28;20019;-74
2022/01/20 06:05:57;;;;;;;2.70;1.00;;;7.50;84.00;;;;;;4995790;28;20121;-72
2022/01/20 06:08:23;;;;;;;3.47;1.00;;;7.50;83.90;;;;;;4994892;28;20073;-72
2022/01/20 06:10:49;;;;;;;4.70;1.02;;;7.40;83.80;;;;;;4995342;28;20030;-72
2022/01/20 06:13:15;;;;;;;4.38;1.17;;;7.40;83.70;;;;;;4994275;28;20080;-73
2022/01/20 06:15:41;;;;;;;5.07;0.93;;;7.40;83.90;;;;;;4993540;28;20645;-73
2022/01/20 06:18:06;;;;;;;2.88;1.00;;;7.40;85.10;;;;;;4994642;28;20126;-73
2022/01/20 06:20:33;;;;;;;3.80;1.02;;;7.40;83.90;;;;;;4994050;28;20121;-73
2022/01/20 06:22:59;;;;;;;5.13;1.02;;;7.50;84.10;;;;;;4995260;28;20400;-75
2022/01/20 06:25:24;;;;;;;4.20;1.00;;;7.40;83.60;;;;;;4993788;28;20026;-73
2022/01/20 06:27:50;;;;;;;5.50;1.02;;;7.40;83.80;;;;;;4992270;28;20485;-73
2022/01/20 06:30:16;;;;;;;3.65;1.00;;;7.50;83.60;;;;;;4994102;28;20022;-72
2022/01/20 06:32:42;;;;;;;4.15;1.00;;;7.40;83.50;;;;;;4995109;28;20556;-72
2022/01/20 06:35:09;;;;;;;4.53;1.25;;;7.40;83.70;;;;;;4995035;28;20046;-73
2022/01/20 06:37:34;;;;;;;3.85;0.88;;;7.40;83.40;;;;;;4997601;28;20069;-73
2022/01/20 06:40:00;;;;;;;3.65;1.15;;;7.40;83.50;;;;;;5008805;28;20476;-72
2022/01/20 06:42:26;;;;;;;3.80;0.93;;;7.30;82.90;;;;;;4996915;28;20172;-73
2022/01/20 06:44:52;;;;;;;5.45;0.95;;;7.20;83.20;;;;;;4997894;28;20050;-73
2022/01/20 06:47:19;;;;;;;4.80;1.15;;;7.20;83.60;;;;;;4996522;28;20022;-72
2022/01/20 06:49:45;;;;;;;3.60;1.00;;;7.30;83.50;;;;;;4997554;28;20037;-73
2022/01/20 06:52:11;;;;;;;4.00;1.00;;;7.20;83.70;;;;;;4994649;28;20023;-74
2022/01/20 06:54:36;;;;;;;3.55;0.88;;;7.20;83.50;;;;;;4995288;28;20042;-74
2022/01/20 06:57:03;;;;;;;5.70;0.93;;;7.30;83.80;;;;;;4997699;28;20038;-74
2022/01/20 06:59:28;;;;;;;5.47;1.13;;;7.20;83.60;;;;;;4997809;28;20439;-74
2022/01/20 07:01:54;;;;;;;3.75;0.90;;;7.30;84.00;;;;;;4997828;28;20030;-74
2022/01/20 07:04:20;;;;;;;2.05;0.70;;;7.20;83.40;;;;;;4995983;28;20188;-74
2022/01/20 07:06:46;;;;;;;6.07;1.27;;;7.30;83.70;;;;;;4995115;28;20035;-74
2022/01/20 07:09:11;;;;;;;4.15;1.00;;;7.20;83.40;;;;;;4996453;28;20041;-74
2022/01/20 07:11:39;;;;;;;5.40;1.30;;;7.20;83.20;;;;;;4997633;28;20038;-74
2022/01/20 07:14:05;;;;;;;5.60;1.00;;;7.20;83.70;;;;;;4997552;28;20031;-74
2022/01/20 07:16:30;;;;;;;3.63;1.00;;;7.10;83.20;;;;;;4997235;28;20508;-73
2022/01/20 07:18:57;;;;;;;3.25;1.20;;;7.10;83.70;;;;;;4993655;28;20121;-74
2022/01/20 07:21:23;;;;;;;3.00;0.88;;;7.10;84.80;;;;;;4997479;28;20022;-74
2022/01/20 07:23:49;;;;;;;5.25;1.15;;;7.10;84.00;;;;;;5000960;28;20035;-74
2022/01/20 07:26:15;;;;;;;4.63;1.20;;;7.20;84.10;;;;;;5001220;28;20027;-74
2022/01/20 07:28:41;;;;;;;4.45;1.02;;;7.20;83.60;;;;;;4999896;28;20408;-74
2022/01/20 07:31:08;;;;;;;3.70;1.20;;;7.20;83.80;;;;;;4997773;28;20504;-73
2022/01/20 07:33:33;;;;;;;4.13;0.98;;;7.20;83.90;;;;;;4999358;28;20031;-73
2022/01/20 07:35:59;;;;;;;5.22;1.08;;;7.20;83.40;;;;;;5000581;28;20054;-74
2022/01/20 07:38:25;;;;;;;4.10;0.80;;;7.10;83.10;;;;;;5000677;28;20038;-74
2022/01/20 07:40:51;;;;;;;5.20;1.55;;;7.10;83.60;;;;;;4998175;28;20382;-73
2022/01/20 07:43:16;;;;;;;3.70;0.90;;;7.10;83.90;;;;;;4998389;28;20022;-73
2022/01/20 07:45:42;;;;;;;3.22;1.00;;;7.10;83.60;;;;;;4995153;28;20149;-74
2022/01/20 07:48:08;;;;;;;3.00;1.17;;;7.10;83.60;;;;;;4997785;28;20018;-73
2022/01/20 07:50:34;;;;;;;3.38;0.90;;;7.10;83.50;;;;;;4998094;28;20381;-73
2022/01/20 07:52:59;;;;;;;3.78;0.93;;;7.10;83.60;;;;;;4997766;28;20070;-74
2022/01/20 07:55:25;;;;;;;5.28;1.10;;;7.20;83.80;;;;;;4998318;28;20061;-74
2022/01/20 07:57:51;;;;;;;4.78;1.10;;;7.10;83.70;;;;;;4996518;28;20042;-74
2022/01/20 08:00:17;;;;;;;4.60;0.90;;;7.20;83.60;;;;;;4996507;28;20034;-74
2022/01/20 08:02:44;;;;;;;4.38;1.08;;;7.20;83.60;;;;;;4997893;28;20038;-74
2022/01/20 08:05:09;;;;;;;4.15;0.85;;;7.20;83.60;;;;;;4997854;28;20469;-73
2022/01/20 08:07:35;;;;;;;6.00;1.00;;;7.20;83.50;;;;;;4997579;28;20077;-73
2022/01/20 08:10:01;;;;;;;5.28;0.93;;;7.30;83.70;;;;;;4997852;28;20080;-74
2022/01/20 08:12:28;;;;;;;3.65;0.88;;;7.40;83.70;;;;;;4995361;28;20081;-74
2022/01/20 08:14:54;;;;;;;2.50;1.10;;;7.50;84.10;;;;;;4997616;28;20029;-73
2022/01/20 08:17:21;;;;;;;4.20;1.40;;;7.70;84.20;;;;;;4997426;28;20038;-72
2022/01/20 08:19:47;;;;;;;4.50;0.98;;;8.00;83.90;;;;;;4997545;28;20053;-72
2022/01/20 08:22:13;;;;;;;2.63;0.70;;;8.20;83.90;;;;;;5013686;28;20396;-71
2022/01/20 08:24:40;;;;;;;3.25;0.98;;;8.40;83.80;;;;;;5014509;28;20034;-71
2022/01/20 08:27:06;;;;;;;3.45;1.10;;;8.70;83.70;;;;;;4996938;28;20092;-71
2022/01/20 08:29:32;;;;;;;4.28;1.10;;;8.90;82.00;;;;;;5010739;28;20113;-69
2022/01/20 08:31:57;;;;;;;4.30;1.05;;;8.90;81.60;;;;;;5004725;28;20405;-69
2022/01/20 08:34:23;;;;;;;5.80;1.67;;;8.90;80.70;;;;;;5008458;28;20499;-70
2022/01/20 08:36:50;;;;;;;8.15;1.50;;;9.00;80.50;;;;;;5020679;28;20570;-69
2022/01/20 08:39:49;;;;;;;5.97;1.25;;;9.00;80.60;;;;;;5021597;28;20040;-72
2022/01/20 08:42:08;;;;;;;4.90;1.40;;;9.10;80.90;;;;;;5013971;28;20128;-72
2022/01/20 08:44:35;;;;;;;6.40;1.25;;;9.20;81.10;;;;;;5014432;28;20473;-72
2022/01/20 08:47:02;;;;;;;7.63;1.50;;;9.40;80.80;;;;;;5020831;28;20146;-73
2022/01/20 08:49:29;;;;;;;5.13;1.40;;;9.60;80.40;;;;;;5019102;28;20038;-72
2022/01/20 08:51:54;;;;;;;7.53;1.45;;;9.70;79.60;;;;;;5021838;28;20471;-72
2022/01/20 08:54:21;;;;;;;4.43;1.50;;;9.90;78.70;;;;;;5002937;28;20599;-77
2022/01/20 08:56:47;;;;;;;7.20;1.48;;;10.00;79.30;;;;;;5011178;28;20045;-70
2022/01/20 08:59:13;;;;;;;8.68;1.60;;;10.20;78.20;;;;;;5001566;28;20022;-70
2022/01/20 09:01:41;;;;;;;4.95;1.75;;;10.40;77.60;;;;;;5003206;28;20034;-70
2022/01/20 09:04:07;;;;;;;6.45;1.40;;;10.60;79.00;;;;;;5009035;28;20057;-71
2022/01/20 09:06:33;;;;;;;6.68;2.15;;;10.80;77.80;;;;;;5001615;28;20034;-68
2022/01/20 09:09:00;;;;;;;4.32;1.60;;;11.20;77.40;;;;;;5006031;28;20443;-70
2022/01/20 09:11:35;;;;;;;4.75;1.67;;;11.40;76.40;;;;;;5006631;28;20044;-72
2022/01/20 09:16:45;;;;;;;8.27;2.10;;;11.50;74.60;;;;;;5002702;28;20044;-70
2022/01/20 09:19:12;;;;;;;4.10;1.67;;;11.70;74.90;;;;;;4996404;28;20022;-70
2022/01/20 09:21:39;;;;;;;5.13;1.77;;;11.90;74.10;;;;;;5003850;28;20029;-71
2022/01/20 09:24:05;;;;;;;5.57;1.65;;;12.20;74.80;;;;;;5007721;28;20404;-71
2022/01/20 09:26:31;;;;;;;5.15;1.30;;;12.30;72.20;;;;;;5008104;28;20021;-73
2022/01/20 09:28:58;;;;;;;6.15;1.50;;;12.40;73.30;;;;;;5014324;28;20412;-71
2022/01/20 09:31:25;;;;;;;4.57;1.50;;;12.70;74.10;;;;;;5008644;28;20018;-70
2022/01/20 09:33:52;;;;;;;5.05;1.52;;;12.80;72.00;;;;;;5017152;28;20038;-82
2022/01/20 09:36:19;;;;;;;5.70;1.48;;;12.80;72.00;;;;;;5008344;28;20054;-78
2022/01/20 09:38:45;;;;;;;5.18;1.40;;;12.90;72.40;;;;;;5010023;28;20041;-78
2022/01/20 09:41:11;;;;;;;6.85;1.63;;;13.00;72.00;;;;;;5002269;28;20029;-68
2022/01/20 09:43:37;;;;;;;5.47;1.42;;;13.10;71.40;;;;;;5000553;28;20021;-72
2022/01/20 09:46:03;;;;;;;8.43;1.70;;;13.20;71.40;;;;;;5013801;28;20514;-69
2022/01/20 09:48:31;;;;;;;5.85;1.50;;;13.30;70.90;;;;;;5012091;28;20443;-69
2022/01/20 09:51:00;;;;;;;6.03;1.40;;;13.50;71.10;;;;;;5013967;28;20088;-69
2022/01/20 09:53:27;;;;;;;5.45;1.48;;;13.60;70.50;;;;;;5003113;28;20025;-66
2022/01/20 09:55:53;;;;;;;5.55;1.55;;;13.80;70.90;;;;;;5011230;28;20045;-66
2022/01/20 09:58:19;;;;;;;5.25;1.50;;;13.90;70.00;;;;;;5023701;28;20516;-67
2022/01/20 10:00:46;;;;;;;5.70;1.35;;;14.00;69.80;;;;;;5003430;28;20034;-70
2022/01/20 10:03:14;;;;;;;6.97;1.58;;;14.10;69.30;;;;;;5005112;28;20026;-71
2022/01/20 10:05:51;;;;;;;7.97;1.80;;;14.20;68.70;;;;;;5013825;28;20037;-71
2022/01/20 10:08:21;;;;;;;4.47;1.27;;;14.30;69.00;;;;;;5004625;28;20025;-68
2022/01/20 10:10:58;;;;;;;6.20;2.00;;;14.20;68.80;;;;;;5004683;28;20084;-67
2022/01/20 10:13:33;;;;;;;7.68;1.70;;;14.40;68.30;;;;;;4998401;28;20030;-67
2022/01/20 10:16:01;;;;;;;4.03;1.10;;;14.40;67.90;;;;;;5015112;28;20029;-68
2022/01/20 10:18:28;;;;;;;7.20;1.90;;;14.60;67.20;;;;;;5020845;28;20029;-68
2022/01/20 10:20:58;;;;;;;4.22;1.25;;;14.70;68.20;;;;;;5005052;28;20030;-67
2022/01/20 10:23:27;;;;;;;6.15;1.50;;;14.80;68.00;;;;;;5003125;28;20109;-68
2022/01/20 10:26:15;;;;;;;5.03;1.40;;;14.90;67.50;;;;;;5011335;28;20025;-68
2022/01/20 10:28:57;;;;;;;4.60;1.10;;;14.90;67.40;;;;;;5017210;28;20025;-67
2022/01/20 10:31:41;;;;;;;4.95;1.40;;;14.90;67.70;;;;;;5014017;28;20142;-67
2022/01/20 10:34:30;;;;;;;5.15;1.35;;;15.00;67.80;;;;;;5000791;28;20045;-68
2022/01/20 10:37:24;;;;;;;4.85;1.42;;;15.20;66.30;;;;;;5001194;28;20193;-67
2022/01/20 10:39:49;;;;;;;8.30;1.35;;;15.30;65.70;;;;;;5017410;28;20113;-68
2022/01/20 10:42:26;;;;;;;7.88;1.38;;;15.40;65.40;;;;;;5016487;28;20114;-66
2022/01/20 10:44:54;;;;;;;5.47;1.55;;;15.40;65.20;;;;;;5018058;28;20070;-66
2022/01/20 10:47:26;;;;;;;7.60;1.33;;;15.50;65.00;;;;;;5019512;28;20048;-65
2022/01/20 10:49:52;;;;;;;7.78;1.83;;;15.60;64.70;;;;;;5016971;28;20026;-65
2022/01/20 10:52:21;;;;;;;6.60;1.75;;;15.80;63.40;;;;;;4994474;28;20026;-68
2022/01/20 10:54:53;;;;;;;6.03;2.03;;;15.80;63.50;;;;;;5008416;28;20160;-68
2022/01/20 10:57:30;;;;;;;5.43;1.75;;;15.90;64.00;;;;;;5009982;28;20173;-69
2022/01/20 11:00:04;;;;;;;4.78;1.65;;;16.00;64.30;;;;;;5008941;28;20053;-68
2022/01/20 11:02:31;;;;;;;5.85;1.95;;;16.10;63.10;;;;;;5007628;28;20052;-69
2022/01/20 11:04:58;;;;;;;7.10;2.15;;;16.10;62.60;;;;;;5013742;28;20030;-68
2022/01/20 11:07:25;;;;;;;7.82;1.90;;;16.10;62.40;;;;;;5016521;28;20084;-68
2022/01/20 11:09:59;;;;;;;6.10;1.73;;;16.00;62.00;;;;;;5020304;28;20038;-69
2022/01/20 11:12:25;;;;;;;5.72;1.98;;;16.00;62.50;;;;;;5027737;28;20729;-68
2022/01/20 11:14:52;;;;;;;5.57;1.90;;;16.00;61.90;;;;;;5002298;28;20030;-69
2022/01/20 11:17:27;;;;;;;7.82;1.70;;;16.00;62.10;;;;;;5010203;28;20041;-71
2022/01/20 11:19:55;;;;;;;5.43;1.58;;;15.90;61.50;;;;;;5018917;28;20041;-68
2022/01/20 11:22:21;;;;;;;4.63;1.50;;;16.10;63.40;;;;;;5016129;28;20065;-72
2022/01/20 11:24:59;;;;;;;4.35;1.60;;;16.30;62.70;;;;;;5022375;28;20060;-69
2022/01/20 11:27:40;;;;;;;5.13;1.50;;;16.50;62.70;;;;;;5011239;28;20079;-69
2022/01/20 11:30:13;;;;;;;7.07;1.42;;;16.30;60.80;;;;;;5004881;28;20022;-71
2022/01/20 11:32:39;;;;;;;4.38;1.60;;;16.40;61.60;;;;;;5004001;28;20041;-68
2022/01/20 11:35:08;;;;;;;4.75;1.30;;;16.50;61.40;;;;;;5012658;28;20042;-68
2022/01/20 11:37:38;;;;;;;4.40;1.33;;;16.70;61.70;;;;;;5016070;28;20072;-69
2022/01/20 11:40:17;;;;;;;7.97;1.60;;;16.80;61.80;;;;;;5010808;28;20088;-69
2022/01/20 11:43:08;;;;;;;7.43;1.70;;;16.80;61.00;;;;;;5006582;28;20048;-72
2022/01/20 11:45:37;;;;;;;6.03;1.50;;;17.70;64.30;;;;;;5007131;28;20168;-68
2022/01/20 11:48:23;;;;;;;5.70;1.30;;;18.50;58.90;;;;;;5007595;28;20049;-67
2022/01/20 11:51:04;;;;;;;4.32;0.90;;;18.60;56.30;;;;;;5007810;28;20148;-71
2022/01/20 11:53:30;;;;;;;7.60;1.98;;;18.90;55.80;;;;;;5011537;28;20370;-70
2022/01/20 11:55:56;;;;;;;4.07;1.33;;;19.40;60.50;;;;;;5006715;28;20041;-68
2022/01/20 11:58:25;;;;;;;4.72;1.50;;;21.10;57.50;;;;;;5010581;28;20057;-69
2022/01/20 12:01:02;;;;;;;4.82;1.40;;;21.70;50.50;;;;;;5001199;28;20025;-68
2022/01/20 12:03:29;;;;;;;4.55;1.10;;;20.70;48.50;;;;;;5000660;28;20030;-68
2022/01/20 12:05:59;;;;;;;4.70;1.15;;;20.30;48.30;;;;;;5012652;28;20401;-67
2022/01/20 12:08:24;;;;;;;4.88;1.30;;;19.10;48.60;;;;;;5008320;28;20021;-77
2022/01/20 12:11:01;;;;;;;5.50;1.35;;;18.10;49.50;;;;;;5001531;28;20042;-68
2022/01/20 12:13:27;;;;;;;4.55;1.55;;;16.80;50.70;;;;;;4998104;28;20515;-68
2022/01/20 12:15:57;;;;;;;7.82;1.70;;;15.90;52.50;;;;;;5010653;28;20034;-69
2022/01/20 12:18:23;;;;;;;5.05;1.33;;;15.10;55.00;;;;;;5006366;28;20304;-68
2022/01/20 12:20:49;;;;;;;5.32;1.40;;;15.30;60.40;;;;;;5001874;28;20026;-71
2022/01/20 12:23:15;;;;;;;6.10;1.27;;;16.90;61.90;;;;;;5002665;28;20026;-68
2022/01/20 12:25:40;;;;;;;6.00;1.23;;;18.60;57.20;;;;;;5005938;28;20224;-69
2022/01/20 12:28:08;;;;;;;5.63;1.23;;;19.90;52.80;;;;;;5004039;28;20030;-69
2022/01/20 12:30:36;;;;;;;5.43;1.35;;;20.70;50.20;;;;;;5009642;28;20124;-69
2022/01/20 12:33:11;;;;;;;4.53;1.45;;;20.70;45.80;;;;;;4997908;28;20409;-69
2022/01/20 12:35:41;;;;;;;3.38;0.88;;;18.80;45.40;;;;;;5001489;28;20068;-69
2022/01/20 12:38:23;;;;;;;4.10;1.17;;;17.10;47.60;;;;;;5009502;28;20033;-69
2022/01/20 12:41:04;;;;;;;2.97;1.05;;;15.80;51.00;;;;;;5010705;28;20042;-68
2022/01/20 12:43:56;;;;;;;4.10;1.27;;;15.50;57.10;;;;;;5007318;28;20036;-68
2022/01/20 12:46:29;;;;;;;3.83;1.20;;;16.60;57.80;;;;;;5012602;28;20045;-69
2022/01/20 12:49:09;;;;;;;4.38;1.02;;;17.80;56.10;;;;;;5005579;28;20034;-69
2022/01/20 12:51:47;;;;;;;4.97;1.10;;;17.40;51.00;;;;;;5008986;28;20018;-69
2022/01/20 12:54:16;;;;;;;3.80;1.20;;;16.10;51.30;;;;;;5002649;28;20017;-68
2022/01/20 12:56:45;;;;;;;3.42;1.00;;;15.30;53.50;;;;;;5011585;28;20044;-68
2022/01/20 12:59:11;;;;;;;5.35;1.10;;;14.70;54.90;;;;;;5009549;28;20034;-68
2022/01/20 13:01:39;;;;;;;4.20;1.30;;;14.20;56.20;;;;;;5010803;28;20037;-68
2022/01/20 13:04:05;;;;;;;6.43;1.20;;;13.80;57.40;;;;;;5012286;28;20026;-68
2022/01/20 13:06:33;;;;;;;6.68;1.40;;;13.50;58.70;;;;;;5004450;28;20183;-68
2022/01/20 13:09:06;;;;;;;3.58;1.05;;;13.30;59.20;;;;;;5011168;28;20034;-68
2022/01/20 13:11:41;;;;;;;3.47;1.05;;;13.20;59.90;;;;;;5006328;28;20443;-68
2022/01/20 13:14:07;;;;;;;3.33;0.90;;;13.00;60.60;;;;;;5001202;28;20500;-68
2022/01/20 13:16:33;;;;;;;4.85;1.10;;;12.90;61.00;;;;;;5011981;28;20038;-68
2022/01/20 13:19:01;;;;;;;6.85;1.40;;;13.00;63.20;;;;;;5003557;28;20029;-71
2022/01/20 13:21:54;;;;;;;3.72;1.10;;;14.40;65.30;;;;;;5007931;28;20139;-69
2022/01/20 13:24:28;;;;;;;3.25;1.00;;;15.60;62.50;;;;;;5006982;28;20514;-67
2022/01/20 13:26:54;;;;;;;5.70;1.20;;;16.80;58.80;;;;;;5004884;28;20117;-68
2022/01/20 13:29:22;;;;;;;4.90;1.20;;;17.10;55.20;;;;;;5008235;28;20084;-68
2022/01/20 13:31:58;;;;;;;5.30;1.08;;;17.40;53.50;;;;;;5011031;28;20033;-68
2022/01/20 13:34:24;;;;;;;4.22;1.27;;;17.00;50.30;;;;;;5011385;28;20109;-68
2022/01/20 13:36:51;;;;;;;4.25;1.42;;;16.00;51.20;;;;;;5001601;28;20141;-69
2022/01/20 13:39:37;;;;;;;4.18;1.30;;;15.90;55.70;;;;;;5007375;28;20017;-70
2022/01/20 13:45:18;;;;;;;6.10;1.27;;;16.10;55.40;;;;;;5011013;28;20406;-67
2022/01/20 13:47:51;;;;;;;6.05;1.30;;;15.80;54.10;;;;;;5002706;28;20118;-70
2022/01/20 13:50:28;;;;;;;5.53;1.00;;;15.10;54.50;;;;;;5010117;28;20083;-76
2022/01/20 13:52:55;;;;;;;3.47;1.02;;;14.80;55.30;;;;;;5008812;28;20030;-74
2022/01/20 13:55:28;;;;;;;3.65;1.20;;;14.70;55.10;;;;;;5005257;28;20061;-71
2022/01/20 13:57:56;;;;;;;4.70;1.10;;;14.70;56.50;;;;;;5010033;28;20038;-70
2022/01/20 14:00:24;;;;;;;4.97;1.10;;;14.80;56.50;;;;;;5005849;28;20373;-70
2022/01/20 14:02:50;;;;;;;6.00;1.08;;;14.70;55.80;;;;;;5008569;28;20489;-68
2022/01/20 14:05:17;;;;;;;4.03;1.10;;;14.40;56.30;;;;;;5004450;28;20077;-68